Time;durP1;ratioP1;P1;durP2;ratioP2;P2;SDS_P1;SDS_P2;PMS_P1;PMS_P2;Temp;Humidity;BMP_temperature;BMP_pressure;BME280_temperature;BME280_humidity;BME280_pressure;Samples;Min_cycle;Max_cycle;Signal;HPM_P1;HPM_P2
2023/01/22 00:01:09;;;;;;;171.98;163.35;;;-2.00;99.90;;;;;;5091170;28;20402;-79
2023/01/22 00:03:35;;;;;;;195.02;187.00;;;-2.10;99.90;;;;;;5098496;28;20059;-78
2023/01/22 00:06:01;;;;;;;143.60;137.13;;;-2.10;99.90;;;;;;5092682;28;20073;-78
2023/01/22 00:08:27;;;;;;;208.50;199.20;;;-2.10;99.90;;;;;;5096455;28;20024;-78
2023/01/22 00:10:54;;;;;;;180.15;172.82;;;-2.20;99.90;;;;;;5093855;28;20035;-78
2023/01/22 00:13:22;;;;;;;200.25;191.43;;;-2.10;99.90;;;;;;5092733;28;20489;-78
2023/01/22 00:15:47;;;;;;;154.40;147.45;;;-2.10;99.90;;;;;;5095583;28;20039;-78
2023/01/22 00:18:13;;;;;;;202.57;194.05;;;-2.10;99.90;;;;;;5086784;28;20036;-79
2023/01/22 00:20:39;;;;;;;163.52;156.10;;;-2.10;99.90;;;;;;5099909;28;20051;-77
2023/01/22 00:23:05;;;;;;;120.40;114.50;;;-2.00;99.90;;;;;;5092181;28;20036;-79
2023/01/22 00:25:31;;;;;;;146.05;139.65;;;-2.10;99.90;;;;;;5091982;28;20034;-79
2023/01/22 00:27:57;;;;;;;156.43;149.90;;;-2.00;99.90;;;;;;5090796;28;20035;-79
2023/01/22 00:30:22;;;;;;;143.48;137.15;;;-2.10;99.90;;;;;;5094724;28;20067;-78
2023/01/22 00:32:48;;;;;;;146.30;140.32;;;-2.10;99.90;;;;;;5101220;28;20591;-78
2023/01/22 00:35:14;;;;;;;146.40;139.65;;;-2.20;99.90;;;;;;5092211;28;20039;-79
2023/01/22 00:37:39;;;;;;;166.95;159.98;;;-2.10;99.90;;;;;;5101558;28;20035;-78
2023/01/22 00:40:06;;;;;;;146.98;139.32;;;-2.10;99.90;;;;;;5096511;28;20048;-77
2023/01/22 00:42:31;;;;;;;143.95;136.90;;;-2.00;99.90;;;;;;5092188;28;20039;-79
2023/01/22 00:44:58;;;;;;;161.32;154.88;;;-2.00;99.90;;;;;;5098394;28;20516;-79
2023/01/22 00:47:25;;;;;;;149.65;143.30;;;-2.00;99.90;;;;;;5091242;28;20063;-78
2023/01/22 00:49:50;;;;;;;149.57;142.68;;;-2.00;99.90;;;;;;5098442;28;20024;-77
2023/01/22 00:52:16;;;;;;;162.48;155.85;;;-2.10;99.90;;;;;;5088556;28;20435;-78
2023/01/22 00:54:42;;;;;;;158.65;151.45;;;-2.10;99.90;;;;;;5074450;28;20057;-79
2023/01/22 00:57:07;;;;;;;139.07;133.00;;;-2.20;99.90;;;;;;5092501;28;20036;-78
2023/01/22 00:59:33;;;;;;;137.38;131.38;;;-2.10;99.90;;;;;;5096082;28;20031;-79
2023/01/22 01:01:59;;;;;;;135.93;129.82;;;-2.00;99.90;;;;;;5092280;28;20477;-78
2023/01/22 01:04:25;;;;;;;136.40;129.88;;;-1.90;99.90;;;;;;5092691;28;20039;-77
2023/01/22 01:06:51;;;;;;;153.70;146.73;;;-2.20;99.90;;;;;;5076677;28;20062;-78
2023/01/22 01:09:16;;;;;;;151.98;145.18;;;-2.30;99.90;;;;;;5092815;28;20435;-78
2023/01/22 01:11:42;;;;;;;151.05;144.00;;;-2.20;99.90;;;;;;5097416;28;20508;-77
2023/01/22 01:14:08;;;;;;;146.75;140.48;;;-2.30;99.90;;;;;;5094517;28;20346;-78
2023/01/22 01:16:34;;;;;;;142.73;136.35;;;-2.20;99.90;;;;;;5089447;28;20123;-78
2023/01/22 01:19:08;;;;;;;142.05;135.68;;;-2.20;99.90;;;;;;5097267;28;20068;-77
2023/01/22 01:21:35;;;;;;;144.73;138.50;;;-2.10;99.90;;;;;;5088764;28;20044;-77
2023/01/22 01:24:01;;;;;;;142.35;136.13;;;-2.10;99.90;;;;;;5091466;28;20039;-79
2023/01/22 01:26:27;;;;;;;161.40;154.25;;;-2.10;99.90;;;;;;5098530;28;20385;-77
2023/01/22 01:28:53;;;;;;;143.32;136.90;;;-2.00;99.90;;;;;;5093437;28;20037;-78
2023/01/22 01:31:21;;;;;;;163.13;156.38;;;-2.00;99.90;;;;;;5078566;28;20123;-76
2023/01/22 01:33:47;;;;;;;173.93;166.80;;;-2.10;99.90;;;;;;5089933;28;20036;-78
2023/01/22 01:36:21;;;;;;;165.05;158.13;;;-2.20;99.90;;;;;;5100653;28;20126;-78
2023/01/22 01:38:47;;;;;;;161.50;154.32;;;-2.20;99.90;;;;;;5092497;28;20115;-76
2023/01/22 01:41:16;;;;;;;153.57;146.68;;;-2.30;99.90;;;;;;5097130;28;20039;-78
2023/01/22 01:43:42;;;;;;;149.27;142.75;;;-2.10;99.90;;;;;;5095913;28;20024;-77
2023/01/22 01:46:23;;;;;;;143.15;137.20;;;-2.10;99.90;;;;;;5095350;28;20050;-79
2023/01/22 01:48:54;;;;;;;149.05;142.82;;;-2.10;99.90;;;;;;5092661;28;20516;-77
2023/01/22 01:51:25;;;;;;;133.73;127.88;;;-2.20;99.90;;;;;;5095416;28;20028;-78
2023/01/22 01:53:51;;;;;;;133.50;126.85;;;-2.10;99.90;;;;;;5094210;28;20035;-78
2023/01/22 01:56:24;;;;;;;147.80;141.00;;;-2.10;99.90;;;;;;5088664;28;20074;-78
2023/01/22 01:58:55;;;;;;;154.73;148.68;;;-2.00;99.90;;;;;;5095655;28;20550;-77
2023/01/22 02:01:21;;;;;;;144.90;138.73;;;-2.00;99.90;;;;;;5075624;28;20045;-78
2023/01/22 02:03:47;;;;;;;141.45;135.68;;;-2.00;99.90;;;;;;5098856;28;20039;-78
2023/01/22 02:06:15;;;;;;;148.48;142.20;;;-2.00;99.90;;;;;;5091676;28;20048;-79
2023/01/22 02:08:44;;;;;;;144.02;137.60;;;-2.10;99.90;;;;;;5090742;28;20499;-77
2023/01/22 02:11:10;;;;;;;168.73;161.50;;;-2.10;99.90;;;;;;5094597;28;20119;-77
2023/01/22 02:13:39;;;;;;;146.93;140.80;;;-2.20;99.90;;;;;;5095335;28;20115;-78
2023/01/22 02:16:08;;;;;;;139.07;133.40;;;-2.30;99.90;;;;;;5100845;28;20051;-77
2023/01/22 02:18:34;;;;;;;139.55;133.38;;;-2.10;99.90;;;;;;5095163;28;20031;-77
2023/01/22 02:21:00;;;;;;;133.75;128.00;;;-2.10;99.90;;;;;;5094993;28;20066;-78
2023/01/22 02:23:31;;;;;;;131.60;125.40;;;-2.10;99.90;;;;;;5093951;28;20040;-78
2023/01/22 02:25:58;;;;;;;137.43;131.60;;;-2.00;99.90;;;;;;5092794;28;20376;-77
2023/01/22 02:28:25;;;;;;;182.98;175.98;;;-2.00;99.90;;;;;;5101672;28;20495;-77
2023/01/22 02:30:51;;;;;;;150.38;144.18;;;-2.00;99.90;;;;;;5096877;28;20056;-77
2023/01/22 02:33:17;;;;;;;165.48;158.02;;;-2.10;99.90;;;;;;5104405;28;20050;-79
2023/01/22 02:35:43;;;;;;;157.07;150.60;;;-2.10;99.90;;;;;;5097048;28;20023;-79
2023/01/22 02:38:08;;;;;;;147.30;141.15;;;-2.10;99.90;;;;;;5094680;28;20031;-79
2023/01/22 02:40:34;;;;;;;144.93;138.40;;;-2.00;99.90;;;;;;5081558;28;20035;-79
2023/01/22 02:43:01;;;;;;;135.40;129.63;;;-2.00;99.90;;;;;;5096472;28;20484;-78
2023/01/22 02:45:27;;;;;;;135.07;129.13;;;-2.00;99.90;;;;;;5105141;28;20064;-79
2023/01/22 02:47:53;;;;;;;154.60;148.43;;;-1.90;99.90;;;;;;5091712;28;20063;-78
2023/01/22 02:50:18;;;;;;;175.48;168.10;;;-1.90;99.90;;;;;;5098146;28;20039;-77
2023/01/22 02:52:44;;;;;;;161.70;154.40;;;-2.00;99.90;;;;;;5096542;28;20031;-79
2023/01/22 02:55:09;;;;;;;139.32;133.63;;;-2.10;99.90;;;;;;5091897;28;20024;-78
2023/01/22 02:57:35;;;;;;;130.63;124.55;;;-2.00;99.90;;;;;;5100519;28;20027;-77
2023/01/22 03:00:01;;;;;;;138.52;132.73;;;-2.00;99.90;;;;;;5089909;28;20032;-76
2023/01/22 03:02:27;;;;;;;147.32;140.45;;;-2.00;99.90;;;;;;5100052;28;20055;-78
2023/01/22 03:05:02;;;;;;;155.80;149.27;;;-1.80;99.90;;;;;;5094205;28;20033;-77
2023/01/22 03:07:40;;;;;;;152.20;145.82;;;-1.90;99.90;;;;;;5080525;28;20032;-78
2023/01/22 03:10:09;;;;;;;145.68;139.07;;;-1.90;99.90;;;;;;5089143;28;20512;-77
2023/01/22 03:23:31;;;;;;;131.45;125.55;;;-2.10;99.90;;;;;;5098014;28;20043;-77
2023/01/22 03:25:57;;;;;;;146.07;140.30;;;-2.00;99.90;;;;;;5098335;28;20027;-78
2023/01/22 03:28:23;;;;;;;150.07;143.85;;;-1.90;99.90;;;;;;5092336;28;20036;-77
2023/01/22 03:30:48;;;;;;;168.90;161.80;;;-1.80;99.90;;;;;;5093418;28;20028;-78
2023/01/22 03:33:14;;;;;;;162.35;155.13;;;-1.70;99.90;;;;;;5097375;28;20028;-78
2023/01/22 03:35:40;;;;;;;170.07;163.25;;;-1.90;99.90;;;;;;5096578;28;20092;-77
2023/01/22 03:38:05;;;;;;;161.98;155.40;;;-2.10;99.90;;;;;;5119368;27;20442;-78
2023/01/22 03:40:31;;;;;;;177.88;170.25;;;-2.10;99.90;;;;;;5094345;28;20027;-77
2023/01/22 03:42:57;;;;;;;154.13;147.35;;;-2.10;99.90;;;;;;5102315;28;20023;-77
2023/01/22 03:45:22;;;;;;;157.00;150.82;;;-2.00;99.90;;;;;;5089177;28;20040;-78
2023/01/22 03:47:50;;;;;;;162.95;156.05;;;-2.00;99.90;;;;;;5079271;28;20516;-79
2023/01/22 03:50:16;;;;;;;166.27;159.73;;;-1.90;99.90;;;;;;5099319;28;20047;-77
2023/01/22 03:52:41;;;;;;;158.63;152.30;;;-1.90;99.90;;;;;;5093691;28;20028;-78
2023/01/22 03:55:07;;;;;;;152.70;146.23;;;-1.90;99.90;;;;;;5097379;28;20031;-77
2023/01/22 03:57:33;;;;;;;170.07;163.30;;;-1.90;99.90;;;;;;5092175;28;20031;-77
2023/01/22 04:00:00;;;;;;;167.52;160.32;;;-1.80;99.90;;;;;;5088387;28;20051;-78
2023/01/22 04:02:27;;;;;;;192.80;185.30;;;-1.90;99.90;;;;;;5074955;28;20489;-77
2023/01/22 04:04:52;;;;;;;152.75;146.43;;;-1.90;99.90;;;;;;5083789;28;20043;-77
2023/01/22 04:07:18;;;;;;;159.13;151.95;;;-2.00;99.90;;;;;;5097649;28;20035;-77
2023/01/22 04:09:44;;;;;;;166.18;159.27;;;-1.90;99.90;;;;;;5090141;28;20554;-77
2023/01/22 04:12:09;;;;;;;157.95;151.05;;;-1.70;99.90;;;;;;5100930;28;20143;-77
2023/01/22 04:14:35;;;;;;;161.00;154.27;;;-1.80;99.90;;;;;;5097845;28;20028;-76
2023/01/22 04:17:01;;;;;;;160.10;153.48;;;-1.80;99.90;;;;;;5082654;28;20413;-77
2023/01/22 04:19:26;;;;;;;148.80;142.13;;;-1.80;99.90;;;;;;5095598;28;20673;-77
2023/01/22 04:21:52;;;;;;;187.80;180.38;;;-1.80;99.90;;;;;;5093802;28;20055;-77
2023/01/22 04:24:18;;;;;;;185.75;178.18;;;-2.00;99.90;;;;;;5099681;28;20040;-76
2023/01/22 04:26:45;;;;;;;181.30;173.93;;;-2.10;99.90;;;;;;5093928;28;20039;-77
2023/01/22 04:29:10;;;;;;;183.48;175.80;;;-2.00;99.90;;;;;;5100380;28;20051;-77
2023/01/22 04:31:37;;;;;;;174.60;167.50;;;-2.00;99.90;;;;;;5090359;28;20055;-78
2023/01/22 04:34:03;;;;;;;167.55;160.88;;;-2.00;99.90;;;;;;5097646;28;20111;-76
2023/01/22 04:36:28;;;;;;;168.07;160.68;;;-1.90;99.90;;;;;;5093289;28;20124;-77
2023/01/22 04:38:55;;;;;;;150.02;143.23;;;-1.80;99.90;;;;;;5094195;28;20036;-77
2023/01/22 04:41:20;;;;;;;187.45;179.07;;;-1.70;99.90;;;;;;5095210;28;20094;-77
2023/01/22 04:43:46;;;;;;;205.10;196.38;;;-1.70;99.90;;;;;;5092544;28;20036;-77
2023/01/22 04:46:11;;;;;;;179.52;172.20;;;-1.80;99.90;;;;;;5096465;28;20506;-76
2023/01/22 04:48:37;;;;;;;176.90;169.57;;;-1.90;99.90;;;;;;5092763;28;20036;-76
2023/01/22 04:51:03;;;;;;;166.77;159.07;;;-1.70;99.90;;;;;;5089200;28;20417;-80
2023/01/22 04:53:28;;;;;;;174.32;166.90;;;-1.70;99.90;;;;;;5091738;28;20130;-78
2023/01/22 04:55:54;;;;;;;179.38;171.63;;;-1.80;99.90;;;;;;5090057;28;20024;-79
2023/01/22 04:58:20;;;;;;;191.10;183.23;;;-1.80;99.90;;;;;;5099008;28;20032;-78
2023/01/22 05:00:45;;;;;;;167.07;159.25;;;-1.70;99.90;;;;;;5090762;28;20048;-79
2023/01/22 05:03:11;;;;;;;216.02;207.15;;;-1.80;99.90;;;;;;5095230;28;20032;-78
2023/01/22 05:05:37;;;;;;;189.13;181.20;;;-1.80;99.90;;;;;;5092421;28;20806;-79
2023/01/22 05:08:03;;;;;;;196.57;188.85;;;-1.90;99.90;;;;;;5092147;28;20024;-77
2023/01/22 05:10:28;;;;;;;167.32;160.52;;;-1.90;99.90;;;;;;5094959;28;20374;-76
2023/01/22 05:12:55;;;;;;;162.70;155.43;;;-2.00;99.90;;;;;;5089120;28;20081;-77
2023/01/22 05:15:20;;;;;;;151.02;144.75;;;-1.80;99.90;;;;;;5098517;28;20401;-77
2023/01/22 05:17:46;;;;;;;157.15;150.20;;;-1.80;99.90;;;;;;5092169;28;20034;-77
2023/01/22 05:20:12;;;;;;;175.55;167.88;;;-1.80;99.90;;;;;;5091752;28;20514;-77
2023/01/22 05:22:37;;;;;;;181.65;173.55;;;-1.80;99.90;;;;;;5092052;28;20725;-78
2023/01/22 05:25:04;;;;;;;181.75;173.88;;;-1.80;99.90;;;;;;5094821;28;20041;-76
2023/01/22 05:27:30;;;;;;;173.63;166.10;;;-1.80;99.90;;;;;;5102887;28;20032;-77
2023/01/22 05:29:55;;;;;;;164.75;157.23;;;-1.80;99.90;;;;;;5094217;28;20474;-76
2023/01/22 05:32:21;;;;;;;162.88;155.35;;;-2.00;99.90;;;;;;5081957;28;20028;-78
2023/01/22 05:34:46;;;;;;;166.95;160.20;;;-1.80;99.90;;;;;;5098627;28;20389;-77
2023/01/22 05:37:12;;;;;;;167.15;159.93;;;-1.60;99.90;;;;;;5096136;28;20035;-77
2023/01/22 05:39:38;;;;;;;178.90;170.15;;;-1.80;99.90;;;;;;5126185;27;20401;-76
2023/01/22 05:42:03;;;;;;;235.68;225.18;;;-1.80;99.90;;;;;;5091316;28;20032;-76
2023/01/22 05:44:29;;;;;;;268.27;256.23;;;-1.80;99.90;;;;;;5102518;28;20058;-77
2023/01/22 05:46:55;;;;;;;216.27;207.32;;;-1.80;99.90;;;;;;5098356;28;20115;-77
2023/01/22 05:49:20;;;;;;;188.82;180.60;;;-1.90;99.90;;;;;;5103598;28;20039;-76
2023/01/22 05:51:47;;;;;;;172.43;165.00;;;-2.00;99.90;;;;;;5100816;28;20751;-77
2023/01/22 05:54:12;;;;;;;192.95;184.00;;;-2.00;99.90;;;;;;5096834;28;20080;-76
2023/01/22 05:56:38;;;;;;;189.30;181.63;;;-2.10;99.90;;;;;;5102834;28;20082;-76
2023/01/22 05:59:04;;;;;;;213.98;204.80;;;-2.00;99.90;;;;;;5099957;28;20040;-78
2023/01/22 06:01:29;;;;;;;292.65;279.48;;;-1.90;99.90;;;;;;5079615;28;20403;-77
2023/01/22 06:03:55;;;;;;;218.35;209.30;;;-1.80;99.90;;;;;;5100700;28;20094;-76
2023/01/22 06:06:21;;;;;;;249.38;237.25;;;-1.90;99.90;;;;;;5099754;28;20030;-78
2023/01/22 06:08:50;;;;;;;289.05;275.83;;;-1.80;99.90;;;;;;5087132;28;20063;-76
2023/01/22 06:11:16;;;;;;;281.20;268.42;;;-1.70;99.90;;;;;;5089917;28;20032;-76
2023/01/22 06:13:42;;;;;;;358.27;341.90;;;-1.80;99.90;;;;;;5101933;28;20508;-77
2023/01/22 06:16:08;;;;;;;290.45;277.35;;;-1.80;99.90;;;;;;5095437;28;20119;-78
2023/01/22 06:18:34;;;;;;;230.13;218.45;;;-1.90;99.90;;;;;;5088392;28;20059;-77
2023/01/22 06:21:05;;;;;;;227.50;217.38;;;-1.80;99.90;;;;;;5070287;28;20088;-78
2023/01/22 06:23:31;;;;;;;225.30;214.35;;;-1.90;99.90;;;;;;5098358;28;20027;-78
2023/01/22 06:25:58;;;;;;;250.88;239.10;;;-1.80;99.90;;;;;;5096612;28;20055;-76
2023/01/22 06:28:24;;;;;;;279.98;267.67;;;-1.80;99.90;;;;;;5098263;28;20028;-77
2023/01/22 06:30:51;;;;;;;226.00;215.85;;;-1.80;99.90;;;;;;5103596;28;20028;-77
2023/01/22 06:33:17;;;;;;;311.02;295.88;;;-1.70;99.90;;;;;;5099462;28;20390;-77
2023/01/22 06:35:43;;;;;;;290.27;276.58;;;-1.80;99.90;;;;;;5102409;28;20077;-78
2023/01/22 06:38:08;;;;;;;341.42;325.75;;;-1.70;99.90;;;;;;5099079;28;20032;-77
2023/01/22 06:40:34;;;;;;;248.35;237.43;;;-1.80;99.90;;;;;;5094434;28;20077;-77
2023/01/22 06:43:04;;;;;;;181.98;173.85;;;-1.80;99.90;;;;;;5094447;28;20031;-77
2023/01/22 06:45:29;;;;;;;222.57;211.45;;;-1.80;99.90;;;;;;5094477;28;20403;-77
2023/01/22 06:47:55;;;;;;;256.63;244.80;;;-1.80;99.90;;;;;;5093740;28;20036;-79
2023/01/22 06:50:21;;;;;;;311.92;298.15;;;-1.70;99.90;;;;;;5074746;28;20024;-76
2023/01/22 06:52:46;;;;;;;328.83;312.83;;;-1.70;99.90;;;;;;5097593;28;20035;-76
2023/01/22 06:55:12;;;;;;;292.58;278.58;;;-1.60;99.90;;;;;;5078196;28;20072;-76
2023/01/22 06:57:38;;;;;;;244.00;232.75;;;-1.60;99.90;;;;;;5095825;28;20048;-76
2023/01/22 07:00:04;;;;;;;274.77;261.50;;;-1.80;99.90;;;;;;5096829;28;20083;-75
2023/01/22 07:02:30;;;;;;;230.52;220.32;;;-1.80;99.90;;;;;;5097182;28;20051;-77
2023/01/22 07:04:57;;;;;;;205.55;195.45;;;-1.90;99.90;;;;;;5098140;28;20063;-77
2023/01/22 07:07:23;;;;;;;274.25;261.77;;;-2.00;99.90;;;;;;5094747;28;20024;-77
2023/01/22 07:09:49;;;;;;;290.02;277.02;;;-1.90;99.90;;;;;;5101448;28;20035;-78
2023/01/22 07:12:15;;;;;;;309.27;294.88;;;-1.80;99.90;;;;;;5101064;28;20023;-76
2023/01/22 07:14:40;;;;;;;304.05;290.13;;;-1.80;99.90;;;;;;5095153;28;20036;-78
2023/01/22 07:17:06;;;;;;;274.42;261.45;;;-2.00;99.90;;;;;;5085650;28;20925;-79
2023/01/22 07:19:32;;;;;;;338.27;321.92;;;-1.90;99.90;;;;;;5092964;28;20028;-79
2023/01/22 07:21:57;;;;;;;335.38;320.27;;;-1.80;99.90;;;;;;5084347;28;20119;-76
2023/01/22 07:24:23;;;;;;;290.75;276.83;;;-1.70;99.90;;;;;;5087955;28;20067;-78
2023/01/22 07:26:49;;;;;;;316.77;301.45;;;-1.70;99.90;;;;;;5075937;28;20027;-76
2023/01/22 07:29:15;;;;;;;337.98;322.02;;;-1.70;99.90;;;;;;5090417;28;20511;-79
2023/01/22 07:31:41;;;;;;;414.58;395.40;;;-1.70;99.90;;;;;;5093456;28;20820;-79
2023/01/22 07:34:07;;;;;;;318.92;304.35;;;-1.70;99.90;;;;;;5093585;28;20477;-78
2023/01/22 07:36:32;;;;;;;342.42;326.27;;;-1.70;99.90;;;;;;5094291;28;20032;-76
2023/01/22 07:39:02;;;;;;;410.15;390.42;;;-1.60;99.90;;;;;;5097220;28;20094;-77
2023/01/22 07:41:28;;;;;;;360.75;343.38;;;-1.50;99.90;;;;;;5091385;28;20397;-77
2023/01/22 07:43:56;;;;;;;267.85;255.52;;;-1.40;99.90;;;;;;5092022;28;20031;-76
2023/01/22 07:46:22;;;;;;;260.00;248.02;;;-1.30;99.90;;;;;;5096636;28;20117;-77
2023/01/22 07:48:48;;;;;;;272.23;260.42;;;-1.20;99.90;;;;;;5078543;28;20082;-75
2023/01/22 07:51:13;;;;;;;241.63;229.68;;;-1.10;99.90;;;;;;5082680;28;20027;-72
2023/01/22 07:53:40;;;;;;;177.48;169.23;;;-1.10;99.90;;;;;;5100489;28;20738;-75
2023/01/22 07:56:07;;;;;;;177.80;169.38;;;-1.40;99.90;;;;;;5096465;28;20032;-73
2023/01/22 07:58:33;;;;;;;190.65;181.32;;;-1.40;99.90;;;;;;5100932;28;20031;-73
2023/01/22 08:00:58;;;;;;;200.82;191.80;;;-1.30;99.90;;;;;;5092810;28;20036;-76
2023/01/22 08:03:24;;;;;;;208.52;197.57;;;-1.10;99.90;;;;;;5098529;28;20024;-75
2023/01/22 08:05:50;;;;;;;189.77;181.77;;;-0.90;99.90;;;;;;5089724;28;20024;-77
2023/01/22 08:08:19;;;;;;;209.23;199.82;;;-0.90;99.90;;;;;;5065274;28;20039;-77
2023/01/22 08:10:45;;;;;;;184.55;175.30;;;-0.80;99.90;;;;;;5069413;28;20033;-77
2023/01/22 08:13:11;;;;;;;190.73;181.65;;;-0.80;99.90;;;;;;5082775;28;20024;-71
2023/01/22 08:15:37;;;;;;;213.32;203.73;;;-0.80;99.90;;;;;;5089963;28;20040;-75
2023/01/22 08:18:03;;;;;;;207.18;197.98;;;-1.10;99.90;;;;;;5090707;28;20092;-76
2023/01/22 08:20:28;;;;;;;211.27;201.82;;;-1.10;99.90;;;;;;5092355;28;20060;-75
2023/01/22 08:22:58;;;;;;;197.65;187.25;;;-1.20;99.90;;;;;;5095563;28;20067;-77
2023/01/22 08:25:25;;;;;;;233.45;222.15;;;-1.30;99.90;;;;;;5089580;28;20512;-76
2023/01/22 08:27:51;;;;;;;207.93;197.20;;;-1.10;99.90;;;;;;5092897;28;20032;-76
2023/01/22 08:30:17;;;;;;;202.65;192.93;;;-1.10;99.90;;;;;;5094440;28;20043;-71
2023/01/22 08:32:44;;;;;;;219.93;209.20;;;-1.00;99.90;;;;;;5096423;28;20103;-76
2023/01/22 08:35:10;;;;;;;212.25;202.75;;;-1.00;99.90;;;;;;5079234;28;20034;-76
2023/01/22 08:37:36;;;;;;;209.07;199.57;;;-1.10;99.90;;;;;;5097169;28;20039;-75
2023/01/22 08:40:06;;;;;;;202.85;193.98;;;-0.90;99.90;;;;;;5097137;28;20395;-76
2023/01/22 08:42:32;;;;;;;224.13;214.07;;;-0.90;99.90;;;;;;5100625;28;20059;-76
2023/01/22 08:44:58;;;;;;;199.65;190.48;;;-0.80;99.90;;;;;;5098493;28;20506;-76
2023/01/22 08:47:23;;;;;;;239.35;228.00;;;-1.00;99.90;;;;;;5094578;28;20059;-75
2023/01/22 08:49:49;;;;;;;194.10;184.32;;;-0.60;99.90;;;;;;5081516;28;20038;-77
2023/01/22 08:52:16;;;;;;;201.05;191.35;;;-0.60;99.90;;;;;;5093543;28;20206;-77
2023/01/22 08:54:41;;;;;;;213.57;202.80;;;-0.40;99.90;;;;;;5098396;28;20584;-75
2023/01/22 08:57:07;;;;;;;211.50;201.73;;;-0.10;99.90;;;;;;5097516;28;20027;-76
2023/01/22 08:59:33;;;;;;;224.93;215.43;;;-0.20;99.90;;;;;;5096722;28;20038;-76
2023/01/22 09:01:59;;;;;;;226.52;216.32;;;-0.20;99.90;;;;;;5099081;28;20035;-76
2023/01/22 09:04:26;;;;;;;203.57;193.43;;;-0.40;99.90;;;;;;5093146;28;20139;-77
2023/01/22 09:06:51;;;;;;;226.77;216.95;;;-0.30;99.90;;;;;;5095406;28;20020;-78
2023/01/22 09:09:17;;;;;;;152.73;145.15;;;-0.20;99.90;;;;;;5096170;28;20035;-77
2023/01/22 09:11:43;;;;;;;152.07;143.98;;;-0.40;99.90;;;;;;5095334;28;20033;-78
2023/01/22 09:14:09;;;;;;;170.68;162.88;;;-0.50;99.90;;;;;;5093816;28;20557;-78
2023/01/22 09:16:36;;;;;;;203.73;192.52;;;-0.30;99.90;;;;;;5093548;28;20033;-78
2023/01/22 09:19:02;;;;;;;212.48;202.57;;;-0.10;99.90;;;;;;5099896;28;20035;-78
2023/01/22 09:21:28;;;;;;;225.75;214.02;;;0.10;99.90;;;;;;5093712;28;20040;-78
2023/01/22 09:23:54;;;;;;;225.38;214.48;;;0.50;99.90;;;;;;5098570;28;20083;-78
2023/01/22 09:26:20;;;;;;;208.15;197.98;;;0.50;99.90;;;;;;5091871;28;20062;-79
2023/01/22 09:28:46;;;;;;;184.70;174.52;;;0.40;99.90;;;;;;5092615;28;20029;-78
2023/01/22 09:31:16;;;;;;;135.20;127.95;;;0.30;99.90;;;;;;5084636;28;20147;-79
2023/01/22 09:33:41;;;;;;;137.73;130.25;;;0.30;99.90;;;;;;5078685;28;20028;-78
2023/01/22 09:36:13;;;;;;;119.95;113.78;;;0.20;99.90;;;;;;5094868;28;20039;-78
2023/01/22 09:38:39;;;;;;;161.70;152.43;;;0.40;99.90;;;;;;5097855;28;20108;-78
2023/01/22 09:41:28;;;;;;;132.95;125.95;;;0.60;99.90;;;;;;5098098;28;20040;-80
2023/01/22 09:44:23;;;;;;;132.52;125.55;;;0.20;99.90;;;;;;5094036;28;20429;-79
2023/01/22 09:46:58;;;;;;;129.48;122.10;;;0.20;99.90;;;;;;5097327;28;20020;-77
2023/01/22 09:49:31;;;;;;;99.93;95.05;;;0.00;99.90;;;;;;5079095;28;20036;-78
2023/01/22 09:51:59;;;;;;;103.95;98.13;;;0.10;99.90;;;;;;5096563;28;20035;-77
2023/01/22 09:54:27;;;;;;;130.68;123.28;;;0.00;99.90;;;;;;5097685;28;20032;-78
2023/01/22 09:56:57;;;;;;;121.18;114.78;;;0.00;99.90;;;;;;5091605;28;20036;-75
2023/01/22 09:59:27;;;;;;;117.45;111.57;;;0.10;99.90;;;;;;5099370;28;20040;-77
2023/01/22 10:01:56;;;;;;;167.88;159.43;;;0.00;99.90;;;;;;5095298;28;20081;-77
2023/01/22 10:04:43;;;;;;;189.55;179.73;;;0.00;99.90;;;;;;5095157;28;20140;-77
2023/01/22 10:07:35;;;;;;;179.18;170.35;;;0.40;99.90;;;;;;5095067;28;20450;-77
2023/01/22 10:10:21;;;;;;;138.02;131.00;;;0.50;99.90;;;;;;5081437;28;20032;-78
2023/01/22 10:12:59;;;;;;;124.30;118.05;;;0.50;99.90;;;;;;5089384;28;20119;-78
2023/01/22 10:15:25;;;;;;;129.82;123.38;;;0.10;99.90;;;;;;5089740;28;20036;-78
2023/01/22 10:17:54;;;;;;;134.98;127.78;;;0.20;99.90;;;;;;5096168;28;20554;-76
2023/01/22 10:20:20;;;;;;;124.95;117.82;;;0.20;99.90;;;;;;5087434;28;20056;-74
2023/01/22 10:22:47;;;;;;;131.50;124.07;;;0.20;99.90;;;;;;5093012;28;20031;-74
2023/01/22 10:25:15;;;;;;;117.32;110.85;;;0.10;99.90;;;;;;5094947;28;20153;-75
2023/01/22 10:27:42;;;;;;;160.50;152.35;;;0.20;99.90;;;;;;5089167;28;20047;-74
2023/01/22 10:30:21;;;;;;;142.02;134.65;;;0.50;99.90;;;;;;5085240;28;20095;-75
2023/01/22 10:33:06;;;;;;;180.30;171.75;;;0.40;99.90;;;;;;5089009;28;20019;-76
2023/01/22 10:35:52;;;;;;;168.07;160.07;;;0.40;99.90;;;;;;5098627;28;20043;-76
2023/01/22 10:38:26;;;;;;;88.75;82.78;;;0.40;99.90;;;;;;5101603;28;20053;-76
2023/01/22 10:40:57;;;;;;;98.30;92.30;;;0.20;99.90;;;;;;5102565;28;20030;-76
2023/01/22 10:43:31;;;;;;;100.20;93.88;;;0.30;99.90;;;;;;5090983;28;20030;-76
2023/01/22 10:46:03;;;;;;;114.78;109.10;;;0.20;99.90;;;;;;5102840;28;20043;-76
2023/01/22 10:48:29;;;;;;;120.97;114.28;;;0.10;99.90;;;;;;5093861;28;20422;-77
2023/01/22 10:51:12;;;;;;;151.35;142.80;;;0.20;99.90;;;;;;5104634;28;20020;-76
2023/01/22 10:53:51;;;;;;;176.45;168.63;;;0.00;99.90;;;;;;5094761;28;20040;-75
2023/01/22 10:56:36;;;;;;;263.05;249.05;;;0.30;99.90;;;;;;5098768;28;20486;-76
2023/01/22 10:59:14;;;;;;;229.57;217.98;;;-0.10;99.90;;;;;;5097810;28;20148;-77
2023/01/22 11:01:41;;;;;;;118.38;111.22;;;-0.30;99.90;;;;;;5097017;28;20162;-75
2023/01/22 11:04:19;;;;;;;109.13;102.55;;;-0.10;99.90;;;;;;5100689;28;20028;-76
2023/01/22 11:06:49;;;;;;;120.65;114.40;;;-0.10;99.90;;;;;;5098277;28;20020;-75
2023/01/22 11:09:22;;;;;;;106.85;101.53;;;-0.10;99.90;;;;;;5093692;28;20528;-76
2023/01/22 11:11:56;;;;;;;120.90;114.00;;;-0.20;99.90;;;;;;5095125;28;20047;-75
2023/01/22 11:14:31;;;;;;;102.28;96.43;;;-0.30;99.90;;;;;;5099909;28;20032;-76
2023/01/22 11:17:25;;;;;;;108.50;103.13;;;0.10;99.90;;;;;;5093414;28;20043;-77
2023/01/22 11:19:59;;;;;;;130.65;123.88;;;0.30;99.90;;;;;;5089560;28;20078;-77
2023/01/22 11:22:32;;;;;;;104.53;98.55;;;0.40;99.90;;;;;;5099615;28;20027;-75
2023/01/22 11:24:58;;;;;;;94.65;90.22;;;0.00;99.90;;;;;;5094950;28;20477;-76
2023/01/22 11:27:56;;;;;;;99.32;94.15;;;0.00;99.70;;;;;;5097217;28;20036;-76
2023/01/22 11:30:32;;;;;;;87.18;82.70;;;-0.10;99.60;;;;;;5096843;28;20517;-77
2023/01/22 11:33:12;;;;;;;80.05;75.70;;;0.00;99.30;;;;;;5100934;28;20031;-77
2023/01/22 11:35:50;;;;;;;88.53;83.60;;;0.00;99.30;;;;;;5097622;28;20027;-76
2023/01/22 11:38:23;;;;;;;79.70;74.55;;;0.10;98.40;;;;;;5093824;28;20031;-76
2023/01/22 11:41:11;;;;;;;86.55;82.75;;;0.00;98.20;;;;;;5095024;28;20039;-76
2023/01/22 11:44:01;;;;;;;78.35;73.93;;;0.00;98.10;;;;;;5102333;28;20028;-78
2023/01/22 11:46:34;;;;;;;56.75;53.40;;;0.10;98.20;;;;;;5084806;28;20024;-76
2023/01/22 11:49:21;;;;;;;70.22;66.13;;;0.10;98.20;;;;;;5092834;28;20478;-77
2023/01/22 11:52:17;;;;;;;64.03;60.50;;;0.10;97.70;;;;;;5093159;28;20039;-76
2023/01/22 11:54:43;;;;;;;76.80;72.65;;;0.00;97.30;;;;;;5084260;28;20033;-77
2023/01/22 11:57:37;;;;;;;81.97;77.50;;;0.20;98.60;;;;;;5089624;28;20030;-77
2023/01/22 12:00:26;;;;;;;66.65;62.72;;;0.40;98.10;;;;;;5083484;28;20039;-77
2023/01/22 12:03:01;;;;;;;65.53;61.92;;;0.00;97.40;;;;;;5082660;28;20031;-76
2023/01/22 12:05:55;;;;;;;58.75;54.50;;;-0.10;97.20;;;;;;5087327;28;20016;-76
2023/01/22 12:08:26;;;;;;;61.47;57.67;;;0.00;97.10;;;;;;5083824;28;20112;-75
2023/01/22 12:11:01;;;;;;;59.97;56.38;;;0.30;97.00;;;;;;5090661;28;20046;-76
2023/01/22 12:13:45;;;;;;;54.72;51.08;;;0.60;95.40;;;;;;5089925;28;20122;-75
2023/01/22 12:16:10;;;;;;;55.50;52.22;;;0.70;95.00;;;;;;5094893;28;20443;-76
2023/01/22 12:18:55;;;;;;;51.45;48.33;;;0.90;94.60;;;;;;5093772;28;20056;-76
2023/01/22 12:21:29;;;;;;;42.63;40.15;;;0.70;94.70;;;;;;5085808;28;20040;-76
2023/01/22 12:24:17;;;;;;;55.53;51.58;;;0.60;95.60;;;;;;5089327;28;20035;-76
2023/01/22 12:26:58;;;;;;;46.97;43.25;;;0.60;96.20;;;;;;5091404;28;20029;-75
2023/01/22 12:29:36;;;;;;;;;;;0.50;94.60;;;;;;5103454;27;20097;-76
2023/01/22 12:32:09;;;;;;;26.33;24.15;;;0.40;95.00;;;;;;5082467;28;20378;-75